Time;durP1;ratioP1;P1;durP2;ratioP2;P2;SDS_P1;SDS_P2;PMS_P1;PMS_P2;Temp;Humidity;BMP_temperature;BMP_pressure;BME280_temperature;BME280_humidity;BME280_pressure;Samples;Min_cycle;Max_cycle;Signal;HPM_P1;HPM_P2
2021/01/28 00:01:29;;;;;;;4.40;4.10;;;;;;;1.82;67.37;99444.78;10420966;28;20045;-67
2021/01/28 00:06:30;;;;;;;5.10;4.70;;;;;;;1.88;67.73;99436.97;10420383;28;20041;-67
2021/01/28 00:11:32;;;;;;;4.88;4.57;;;;;;;1.71;68.32;99432.72;10420906;28;20463;-67
2021/01/28 00:16:33;;;;;;;5.40;5.03;;;;;;;1.62;68.88;99421.56;10402102;28;20072;-66
2021/01/28 00:21:34;;;;;;;5.15;4.85;;;;;;;1.71;68.93;99419.75;10419248;28;20049;-68
2021/01/28 00:26:36;;;;;;;6.28;5.88;;;;;;;1.70;69.38;99412.88;10419913;28;20048;-66
2021/01/28 00:31:37;;;;;;;5.38;5.07;;;;;;;1.82;68.93;99400.72;10419394;28;20121;-67
2021/01/28 00:36:39;;;;;;;5.65;5.25;;;;;;;1.90;68.84;99404.94;10419030;28;20052;-66
2021/01/28 00:41:40;;;;;;;5.45;5.15;;;;;;;1.87;69.02;99402.41;10419002;28;20042;-67
2021/01/28 00:46:41;;;;;;;5.63;5.32;;;;;;;1.90;68.51;99380.78;10419035;28;20060;-67
2021/01/28 00:51:42;;;;;;;5.75;5.35;;;;;;;1.88;68.97;99372.16;10418197;28;20076;-66
2021/01/28 00:56:44;;;;;;;5.35;4.95;;;;;;;1.80;69.08;99373.94;10400602;28;20049;-67
2021/01/28 01:01:45;;;;;;;5.60;5.20;;;;;;;1.88;68.72;99380.78;10400583;28;20384;-66
2021/01/28 01:06:47;;;;;;;4.63;4.32;;;;;;;2.09;68.50;99363.38;10400533;28;20133;-67
2021/01/28 01:11:49;;;;;;;4.10;3.80;;;;;;;2.15;68.46;99363.31;10399642;28;20499;-67
2021/01/28 01:16:50;;;;;;;4.63;4.32;;;;;;;2.05;68.59;99359.09;10419074;28;20037;-65
2021/01/28 01:21:57;;;;;;;4.03;3.73;;;;;;;2.10;68.28;99349.53;10416931;28;20133;-66
2021/01/28 01:26:59;;;;;;;4.47;4.18;;;;;;;2.18;68.58;99347.72;10417436;28;20296;-66
2021/01/28 01:32:01;;;;;;;3.90;3.60;;;;;;;2.20;68.26;99333.88;10398851;28;20076;-66
2021/01/28 01:37:09;;;;;;;;;;;;;;;2.22;68.33;99321.75;10418387;28;20172;-65
2021/01/28 01:42:16;;;;;;;;;;;;;;;2.12;68.95;99314.06;10398353;28;19928;-66
2021/01/28 01:47:37;;;;;;;5.05;4.75;;;;;;;2.33;68.11;99310.41;10398562;28;19921;-66
2021/01/28 01:52:40;;;;;;;4.53;4.22;;;;;;;2.17;68.91;99307.09;10398973;28;20052;-66
2021/01/28 01:57:42;;;;;;;5.05;4.75;;;;;;;2.22;69.44;99318.31;10415903;28;20048;-66
2021/01/28 02:02:55;;;;;;;5.53;5.22;;;;;;;2.08;70.00;99315.84;10397930;28;20045;-66
2021/01/28 02:08:14;;;;;;;6.18;5.78;;;;;;;2.10;70.07;99305.44;10415612;28;20053;-67
2021/01/28 02:13:30;;;;;;;6.70;6.20;;;;;;;2.08;71.04;99292.50;10415818;28;20050;-66
2021/01/28 02:18:44;;;;;;;5.93;5.53;;;;;;;2.09;71.13;99289.03;10398275;28;20143;-66
2021/01/28 02:24:09;;;;;;;7.28;5.72;;;;;;;2.10;71.57;99270.00;10396984;28;20049;-65
2021/01/28 02:29:11;;;;;;;6.05;5.65;;;;;;;2.21;71.24;99277.66;10396637;28;20052;-66
2021/01/28 02:34:13;;;;;;;5.50;5.10;;;;;;;2.28;70.58;99279.34;10396721;28;20046;-65
2021/01/28 02:39:32;;;;;;;5.50;5.10;;;;;;;2.35;70.03;99269.78;10397310;28;20064;-67
2021/01/28 02:44:46;;;;;;;4.38;4.07;;;;;;;2.36;69.75;99256.78;10397510;28;20091;-66
2021/01/28 02:50:11;;;;;;;5.43;5.10;;;;;;;2.44;69.43;99249.78;10376931;28;20057;-66
2021/01/28 02:55:16;;;;;;;5.07;4.75;;;;;;;2.41;69.60;99249.81;10380451;28;20041;-66
2021/01/28 03:00:24;;;;;;;5.47;5.13;;;;;;;2.37;69.76;99247.25;10404700;28;20506;-67
2021/01/28 03:05:27;;;;;;;5.43;5.10;;;;;;;2.47;69.96;99251.47;10403384;28;20041;-66
2021/01/28 03:10:28;;;;;;;5.68;5.28;;;;;;;2.42;70.12;99240.28;10403883;28;20140;-67
2021/01/28 03:15:36;;;;;;;6.20;5.80;;;;;;;2.40;70.59;99244.66;10403828;28;20049;-67
2021/01/28 03:20:38;;;;;;;5.30;4.90;;;;;;;2.33;71.73;99235.19;10421962;28;20119;-66
2021/01/28 03:25:50;;;;;;;5.30;4.90;;;;;;;2.36;71.66;99238.63;10403451;28;20065;-66
2021/01/28 03:30:54;;;;;;;4.90;4.60;;;;;;;2.35;71.26;99231.72;10386019;28;20045;-67
2021/01/28 03:35:55;;;;;;;5.13;4.72;;;;;;;2.45;71.17;99245.44;10419902;28;20093;-67
2021/01/28 03:40:58;;;;;;;5.32;4.90;;;;;;;2.44;71.12;99234.22;10401413;28;20135;-66
2021/01/28 03:45:59;;;;;;;5.85;5.38;;;;;;;2.45;70.99;99222.97;10419749;28;20049;-66
2021/01/28 03:51:06;;;;;;;4.93;4.63;;;;;;;2.46;71.12;99222.06;10450992;23;20037;-67
2021/01/28 03:56:27;;;;;;;5.28;4.95;;;;;;;2.46;71.27;99208.25;10462486;28;20546;-68
2021/01/28 04:01:29;;;;;;;4.00;3.70;;;;;;;2.44;71.40;99197.03;10445875;28;20049;-67
2021/01/28 04:06:39;;;;;;;4.47;4.18;;;;;;;2.45;71.19;99178.00;10445630;28;20048;-67
2021/01/28 04:11:45;;;;;;;4.78;4.40;;;;;;;2.52;70.87;99179.63;10463228;28;20048;-68
2021/01/28 04:17:05;;;;;;;3.92;3.63;;;;;;;2.57;70.75;99170.06;10461414;28;20048;-66
2021/01/28 04:22:07;;;;;;;4.40;4.07;;;;;;;2.63;70.40;99145.78;10442776;28;20049;-66
2021/01/28 04:27:11;;;;;;;4.85;4.45;;;;;;;2.55;70.78;99151.06;10442553;28;20041;-66
2021/01/28 04:32:37;;;;;;;4.72;4.40;;;;;;;2.66;70.53;99138.81;10442955;28;20075;-67
2021/01/28 04:38:11;;;;;;;3.83;3.53;;;;;;;2.73;70.34;99135.22;10427169;28;20049;-67
2021/01/28 04:43:25;;;;;;;4.10;3.80;;;;;;;2.70;70.27;99130.09;10442803;28;20041;-66
2021/01/28 04:48:47;;;;;;;5.25;4.95;;;;;;;2.66;70.48;99133.63;10459846;28;20506;-67
2021/01/28 04:54:32;;;;;;;5.03;4.70;;;;;;;2.70;70.53;99130.09;10433839;28;20037;-67
2021/01/28 04:59:42;;;;;;;5.10;4.70;;;;;;;2.70;70.21;99132.69;10443285;28;20041;-67
2021/01/28 05:04:52;;;;;;;5.10;4.78;;;;;;;2.75;70.11;99135.22;10427037;28;20072;-66
2021/01/28 05:10:14;;;;;;;5.32;4.97;;;;;;;2.75;70.04;99124.84;10444484;28;20052;-66
2021/01/28 05:15:38;;;;;;;5.50;5.10;;;;;;;2.81;69.97;99108.31;10461009;28;20075;-67
2021/01/28 05:21:22;;;;;;;4.93;4.53;;;;;;;2.90;69.68;99109.03;10447315;28;20537;-66
2021/01/28 05:26:43;;;;;;;4.93;4.53;;;;;;;2.94;69.58;99109.84;10468830;28;20057;-66
2021/01/28 05:31:45;;;;;;;5.72;5.30;;;;;;;2.86;70.02;99106.50;10467083;28;20051;-67
2021/01/28 05:37:00;;;;;;;5.47;5.07;;;;;;;2.88;70.22;99109.91;10472944;28;20131;-67
2021/01/28 05:42:26;;;;;;;5.43;4.55;;;;;;;2.91;70.17;99100.34;10440362;28;20044;-66
2021/01/28 05:47:33;;;;;;;4.45;4.15;;;;;;;2.95;69.79;99104.63;10441068;28;20045;-66
2021/01/28 05:53:08;;;;;;;5.68;5.20;;;;;;;2.88;70.45;99107.31;10439963;28;20114;-67
2021/01/28 05:58:31;;;;;;;5.78;5.32;;;;;;;2.83;70.59;99093.56;10423094;28;20045;-66
2021/01/28 06:03:38;;;;;;;6.03;5.53;;;;;;;2.82;70.72;99079.72;10439168;28;20049;-67
2021/01/28 06:09:18;;;;;;;5.90;5.40;;;;;;;2.83;70.57;99076.25;10458310;28;20080;-66
2021/01/28 06:14:44;;;;;;;5.55;5.05;;;;;;;2.80;71.63;99076.31;10441029;28;20041;-68
2021/01/28 06:20:01;;;;;;;6.47;5.97;;;;;;;2.76;71.66;99072.06;10440544;28;20075;-66
2021/01/28 06:25:33;;;;;;;5.95;5.45;;;;;;;2.80;71.56;99065.09;10440297;28;20045;-66
2021/01/28 06:30:52;;;;;;;5.95;5.35;;;;;;;2.78;71.33;99055.56;10440774;28;20131;-66
2021/01/28 06:36:40;;;;;;;5.82;5.40;;;;;;;2.90;70.76;99062.31;10452527;28;20041;-66
2021/01/28 06:42:20;;;;;;;5.88;5.28;;;;;;;2.94;70.43;99065.72;10466250;28;20648;-67
2021/01/28 06:47:58;;;;;;;5.55;5.13;;;;;;;3.03;69.99;99056.03;10447965;28;20414;-67
2021/01/28 06:53:18;;;;;;;5.65;5.03;;;;;;;3.03;69.98;99060.38;10446355;28;20061;-66
2021/01/28 06:59:08;;;;;;;5.57;5.18;;;;;;;3.13;69.40;99050.66;10463423;28;20049;-66
2021/01/28 07:04:30;;;;;;;5.90;5.47;;;;;;;3.16;69.45;99048.88;10447817;28;20045;-67
2021/01/28 07:10:06;;;;;;;6.20;5.70;;;;;;;3.20;69.72;99047.94;10448132;28;20049;-67
2021/01/28 07:15:27;;;;;;;5.30;4.80;;;;;;;3.19;69.43;99043.66;10447033;28;20418;-67
2021/01/28 07:21:04;;;;;;;5.43;4.75;;;;;;;3.24;69.33;99030.56;10446968;28;20053;-66
2021/01/28 07:26:13;;;;;;;5.53;5.03;;;;;;;3.31;69.39;99029.56;10447370;28;20104;-67
2021/01/28 07:31:37;;;;;;;5.75;5.30;;;;;;;3.32;69.03;99026.09;10445717;28;20529;-67
2021/01/28 07:36:45;;;;;;;5.25;4.75;;;;;;;3.27;69.27;99020.09;10443164;28;20040;-67
2021/01/28 07:42:31;;;;;;;6.10;5.53;;;;;;;3.23;69.37;99008.06;10460393;28;20053;-67
2021/01/28 07:47:57;;;;;;;5.97;5.38;;;;;;;3.32;68.93;98997.53;10447090;28;20312;-69
2021/01/28 07:53:35;;;;;;;6.93;5.65;;;;;;;3.33;69.10;98988.00;10462569;28;20059;-67
2021/01/28 07:58:37;;;;;;;5.30;4.78;;;;;;;3.41;68.88;98968.78;10462620;28;20049;-67
2021/01/28 08:04:05;;;;;;;6.40;5.90;;;;;;;3.40;69.25;98958.41;10462518;28;20049;-68
2021/01/28 08:09:14;;;;;;;5.65;5.10;;;;;;;3.36;69.33;98977.53;10462163;28;20124;-67
2021/01/28 08:14:20;;;;;;;5.32;4.82;;;;;;;3.40;69.15;98967.03;10486606;28;20032;-67
2021/01/28 08:19:27;;;;;;;5.45;4.95;;;;;;;3.39;69.20;98954.09;10503241;28;20045;-68
2021/01/28 08:24:34;;;;;;;5.57;5.15;;;;;;;3.28;69.56;98949.13;10507524;28;20090;-66
2021/01/28 08:29:36;;;;;;;6.15;4.72;;;;;;;3.37;69.45;98963.69;10504724;28;20115;-67
2021/01/28 08:34:37;;;;;;;5.35;4.95;;;;;;;3.39;69.20;98959.28;10514875;28;20036;-67
2021/01/28 08:39:39;;;;;;;5.72;5.18;;;;;;;3.44;69.21;98952.25;10496908;28;20441;-66
2021/01/28 08:44:44;;;;;;;5.80;5.22;;;;;;;3.46;69.11;98945.31;10512140;28;20478;-67
2021/01/28 08:50:04;;;;;;;6.85;6.13;;;;;;;3.53;69.05;98946.88;10506841;28;20046;-66
2021/01/28 08:55:23;;;;;;;6.15;5.57;;;;;;;3.59;68.62;98948.50;10505873;28;20367;-67
2021/01/28 09:00:25;;;;;;;7.35;5.70;;;;;;;3.51;69.08;98946.91;10507918;28;20041;-67
2021/01/28 09:05:33;;;;;;;6.85;6.15;;;;;;;3.72;68.37;98944.75;10498462;28;20037;-67
2021/01/28 09:10:37;;;;;;;6.18;5.57;;;;;;;3.70;68.40;98943.91;10469835;28;20068;-68
2021/01/28 09:15:41;;;;;;;6.55;5.95;;;;;;;3.62;69.15;98951.03;10451358;28;20068;-67
2021/01/28 09:20:43;;;;;;;8.32;6.00;;;;;;;3.63;69.76;98955.31;10433682;28;20049;-67
2021/01/28 09:26:06;;;;;;;7.25;6.57;;;;;;;3.66;69.62;98947.47;10448088;28;20144;-68
2021/01/28 09:31:23;;;;;;;7.45;6.43;;;;;;;3.67;69.10;98943.97;10466421;28;20052;-69
2021/01/28 09:36:27;;;;;;;6.38;5.88;;;;;;;3.73;69.05;98941.25;10465311;28;20417;-69
2021/01/28 09:41:38;;;;;;;7.18;5.88;;;;;;;3.75;68.97;98919.53;10463357;28;20068;-67
2021/01/28 09:46:39;;;;;;;6.32;5.70;;;;;;;3.93;68.21;98912.22;10465396;28;20033;-68
2021/01/28 09:51:41;;;;;;;6.75;5.95;;;;;;;4.01;68.01;98908.53;10515327;22;21119;-64
2021/01/28 09:56:43;;;;;;;7.80;5.53;;;;;;;4.22;67.47;98904.59;10539111;28;20115;-64
2021/01/28 10:01:46;;;;;;;6.90;5.97;;;;;;;4.10;67.67;98898.81;10537936;28;20397;-64
2021/01/28 10:06:48;;;;;;;7.35;5.90;;;;;;;4.18;67.49;98907.31;10496938;28;20033;-64
2021/01/28 10:11:49;;;;;;;6.35;5.75;;;;;;;4.27;66.95;98896.69;10497321;28;20042;-64
2021/01/28 10:16:51;;;;;;;6.88;5.05;;;;;;;4.25;66.97;98896.72;10497242;28;20049;-64
2021/01/28 10:21:52;;;;;;;6.97;5.85;;;;;;;4.31;67.09;98893.13;10497059;28;20049;-63
2021/01/28 10:26:53;;;;;;;5.13;4.72;;;;;;;4.26;67.18;98866.38;10498277;28;20037;-65
2021/01/28 10:31:55;;;;;;;6.20;5.20;;;;;;;4.35;66.67;98866.13;10497339;28;20048;-64
2021/01/28 10:36:56;;;;;;;6.60;5.90;;;;;;;4.25;67.38;98846.41;10497315;28;20413;-64
2021/01/28 10:41:57;;;;;;;9.23;5.68;;;;;;;4.14;67.63;98836.28;10496721;28;20076;-63
2021/01/28 10:46:58;;;;;;;6.63;4.85;;;;;;;4.36;67.29;98822.75;10478325;28;20045;-63
2021/01/28 10:52:00;;;;;;;6.13;4.72;;;;;;;4.34;67.39;98825.41;10506861;28;20119;-65
2021/01/28 10:57:03;;;;;;;6.75;6.05;;;;;;;4.35;67.57;98813.25;10496815;28;20068;-64
2021/01/28 11:02:04;;;;;;;14.20;6.80;;;;;;;4.36;67.71;98800.19;10480666;28;20508;-63
2021/01/28 11:07:06;;;;;;;6.43;5.78;;;;;;;4.35;68.03;98780.28;10497446;28;20512;-62
2021/01/28 11:12:07;;;;;;;6.85;4.63;;;;;;;4.60;67.14;98770.03;10497271;28;20124;-63
2021/01/28 11:17:08;;;;;;;7.07;5.28;;;;;;;4.66;67.37;98761.22;10496624;28;20437;-63
2021/01/28 11:22:09;;;;;;;8.27;5.07;;;;;;;4.69;66.82;98754.19;10504335;28;20451;-63
2021/01/28 11:27:11;;;;;;;5.47;4.13;;;;;;;4.73;66.49;98742.75;10503405;28;20044;-63
2021/01/28 11:32:13;;;;;;;6.28;4.38;;;;;;;4.62;67.14;98728.38;10484895;28;20106;-65
2021/01/28 11:37:14;;;;;;;8.07;4.65;;;;;;;4.74;66.81;98717.63;10485580;28;20127;-64
2021/01/28 11:42:17;;;;;;;6.18;4.53;;;;;;;4.81;66.86;98724.31;10502247;28;20040;-64
2021/01/28 11:47:18;;;;;;;6.57;4.28;;;;;;;4.80;66.78;98714.81;10502811;28;20064;-64
2021/01/28 11:52:20;;;;;;;5.57;3.90;;;;;;;4.67;67.35;98711.72;10504751;28;20056;-64
2021/01/28 11:57:22;;;;;;;5.85;4.25;;;;;;;4.85;66.60;98709.47;10503685;28;20355;-62
2021/01/28 12:02:24;;;;;;;4.20;3.75;;;;;;;4.69;67.20;98701.25;10501261;28;20051;-64
2021/01/28 12:07:29;;;;;;;8.63;4.35;;;;;;;4.47;68.02;98693.22;10502076;28;20090;-64
2021/01/28 12:12:30;;;;;;;6.22;3.85;;;;;;;4.36;68.59;98690.91;10501749;28;20508;-62
2021/01/28 12:17:31;;;;;;;4.88;4.22;;;;;;;4.15;69.06;98681.97;10501305;28;20032;-63
2021/01/28 12:22:32;;;;;;;6.97;5.57;;;;;;;4.08;68.95;98677.00;10501448;28;20052;-63
2021/01/28 12:27:34;;;;;;;8.13;7.35;;;;;;;4.17;68.95;98671.53;10483005;28;20067;-67
2021/01/28 12:32:36;;;;;;;9.23;8.40;;;;;;;4.34;68.69;98671.91;10500041;28;20052;-63
2021/01/28 12:37:38;;;;;;;11.18;8.77;;;;;;;4.19;68.76;98669.72;10500321;28;20493;-62
2021/01/28 12:42:39;;;;;;;10.65;8.40;;;;;;;3.91;69.87;98656.63;10499861;28;20148;-63
2021/01/28 12:47:40;;;;;;;8.88;8.00;;;;;;;4.05;69.73;98644.09;10481657;28;20405;-63
2021/01/28 12:52:42;;;;;;;8.85;8.02;;;;;;;4.21;69.42;98635.00;10499350;28;20079;-63
2021/01/28 12:57:43;;;;;;;8.82;7.88;;;;;;;4.35;69.30;98631.16;10499474;28;20036;-64
2021/01/28 13:02:45;;;;;;;11.60;10.50;;;;;;;4.19;69.79;98628.13;10498890;28;20047;-63
2021/01/28 13:07:47;;;;;;;10.15;8.73;;;;;;;4.43;69.94;98621.38;10499319;28;20469;-63
2021/01/28 13:12:48;;;;;;;8.25;7.45;;;;;;;4.28;70.27;98614.84;10498862;28;20454;-63
2021/01/28 13:17:52;;;;;;;9.00;6.47;;;;;;;4.33;70.68;98615.56;10498653;28;20052;-63
2021/01/28 13:22:54;;;;;;;7.60;5.38;;;;;;;4.52;70.64;98606.31;10480980;28;20505;-64
2021/01/28 13:27:56;;;;;;;8.90;8.00;;;;;;;4.44;70.51;98597.91;10498779;28;20487;-63
2021/01/28 13:32:58;;;;;;;12.82;8.25;;;;;;;4.40;71.61;98585.03;10498223;28;20045;-63
2021/01/28 13:38:00;;;;;;;7.28;5.13;;;;;;;4.38;71.43;98582.44;10499146;28;20397;-62
2021/01/28 13:43:03;;;;;;;5.05;4.22;;;;;;;4.68;70.59;98569.41;10497216;28;20076;-62
2021/01/28 13:48:05;;;;;;;7.32;4.60;;;;;;;4.05;71.89;98566.09;10497917;28;20059;-63
2021/01/28 13:53:06;;;;;;;6.90;5.05;;;;;;;4.19;72.72;98563.09;10497333;28;20401;-63
2021/01/28 13:58:07;;;;;;;6.57;3.40;;;;;;;4.05;72.76;98563.50;10497729;28;20105;-63
2021/01/28 14:03:09;;;;;;;6.03;5.45;;;;;;;3.95;73.00;98549.91;10497543;28;20115;-62
2021/01/28 14:08:10;;;;;;;5.32;4.15;;;;;;;3.83;72.73;98546.81;10497686;28;20044;-63
2021/01/28 14:13:12;;;;;;;6.68;4.53;;;;;;;3.69;72.88;98537.66;10497167;28;20405;-62
2021/01/28 14:18:16;;;;;;;6.80;5.35;;;;;;;3.75;72.62;98529.69;10497068;28;20123;-62
2021/01/28 14:23:17;;;;;;;6.72;4.43;;;;;;;3.51;73.30;98527.78;10496981;28;20094;-64
2021/01/28 14:28:18;;;;;;;7.43;5.28;;;;;;;3.41;73.93;98522.00;10497065;28;20041;-62
2021/01/28 14:33:20;;;;;;;5.55;4.30;;;;;;;3.57;73.39;98509.41;10497375;28;20444;-62
2021/01/28 14:38:21;;;;;;;4.93;3.80;;;;;;;3.47;73.85;98501.03;10498457;28;20585;-64
2021/01/28 14:43:23;;;;;;;4.80;3.90;;;;;;;3.26;73.91;98504.19;10496786;28;20442;-63
2021/01/28 14:48:24;;;;;;;8.70;5.22;;;;;;;3.69;72.99;98498.69;10497659;28;20044;-65
2021/01/28 14:53:26;;;;;;;7.65;4.80;;;;;;;3.52;73.04;98496.56;10500280;28;20041;-63
2021/01/28 14:58:27;;;;;;;5.80;4.88;;;;;;;3.46;73.34;98482.91;10503881;28;20174;-63
2021/01/28 15:03:28;;;;;;;6.95;4.45;;;;;;;3.41;73.48;98488.22;10486018;28;20127;-63
2021/01/28 15:08:29;;;;;;;4.75;3.97;;;;;;;3.43;73.04;98489.00;10503506;28;20115;-64
2021/01/28 15:13:30;;;;;;;5.47;4.47;;;;;;;3.36;73.46;98482.28;10503472;28;20041;-62
2021/01/28 15:18:31;;;;;;;5.65;4.30;;;;;;;3.21;74.04;98482.69;10502648;28;20124;-63
2021/01/28 15:23:32;;;;;;;5.18;4.20;;;;;;;3.28;73.90;98473.88;10504187;28;20040;-63
2021/01/28 15:28:34;;;;;;;4.85;3.13;;;;;;;3.19;73.79;98479.31;10502497;28;20120;-62
2021/01/28 15:33:36;;;;;;;5.15;4.40;;;;;;;3.10;74.09;98476.94;10501426;28;20182;-63
2021/01/28 15:38:38;;;;;;;7.00;3.97;;;;;;;3.01;74.15;98480.63;10501325;28;20047;-63
2021/01/28 15:43:43;;;;;;;3.28;2.90;;;;;;;2.75;74.25;98476.97;10502470;28;20044;-64
2021/01/28 15:48:46;;;;;;;3.35;2.70;;;;;;;2.62;74.80;98475.56;10497002;28;20044;-64
2021/01/28 15:53:48;;;;;;;4.55;3.38;;;;;;;2.61;75.03;98478.19;10497135;28;20355;-64
2021/01/28 15:58:49;;;;;;;5.13;4.13;;;;;;;2.64;75.41;98484.16;10496983;28;20090;-64
2021/01/28 16:03:50;;;;;;;4.38;3.22;;;;;;;2.78;74.79;98489.84;10477633;22;20048;-64
2021/01/28 16:08:53;;;;;;;6.03;3.72;;;;;;;2.65;75.14;98483.25;10463472;28;20113;-64
2021/01/28 16:13:55;;;;;;;4.55;4.07;;;;;;;2.70;74.94;98493.53;10476596;28;20212;-64
2021/01/28 16:18:57;;;;;;;5.82;5.13;;;;;;;2.69;74.83;98491.81;10472673;28;20064;-65
2021/01/28 16:23:59;;;;;;;7.38;5.18;;;;;;;2.32;75.43;98492.72;10474022;28;20055;-63
2021/01/28 16:29:01;;;;;;;6.53;5.35;;;;;;;2.34;75.67;98500.44;10473160;28;20072;-63
2021/01/28 16:34:03;;;;;;;7.13;6.30;;;;;;;2.31;75.87;98501.38;10452283;28;20091;-64
2021/01/28 16:39:05;;;;;;;7.18;6.53;;;;;;;2.51;75.82;98503.50;10421644;28;20051;-64
2021/01/28 16:44:09;;;;;;;10.98;8.20;;;;;;;2.49;75.65;98506.13;10471189;28;20048;-64
2021/01/28 16:49:11;;;;;;;7.28;6.57;;;;;;;2.38;75.47;98515.03;10471280;28;20065;-63
2021/01/28 16:54:13;;;;;;;7.55;6.85;;;;;;;2.28;75.96;98522.19;10472530;28;20104;-65
2021/01/28 16:59:15;;;;;;;9.73;8.77;;;;;;;2.29;76.00;98529.06;10468531;28;20052;-62
2021/01/28 17:04:16;;;;;;;8.00;7.30;;;;;;;2.56;75.14;98529.31;10468492;28;20045;-65
2021/01/28 17:09:17;;;;;;;13.90;10.43;;;;;;;2.49;74.94;98532.06;10452679;28;20052;-64
2021/01/28 17:14:19;;;;;;;10.57;9.60;;;;;;;2.28;75.14;98527.38;10472506;28;20041;-64
2021/01/28 17:19:21;;;;;;;10.65;9.85;;;;;;;2.35;74.85;98533.28;10471404;28;20132;-64
2021/01/28 17:24:24;;;;;;;9.65;8.90;;;;;;;2.03;75.41;98538.25;10474057;28;20474;-64
2021/01/28 17:29:27;;;;;;;11.20;10.30;;;;;;;2.01;75.59;98545.22;10457717;28;20044;-64
2021/01/28 17:34:29;;;;;;;10.10;9.30;;;;;;;2.13;75.24;98545.88;10438555;28;20044;-64
2021/01/28 17:39:30;;;;;;;11.25;10.45;;;;;;;2.08;75.45;98545.97;10468891;28;20041;-65
2021/01/28 17:44:32;;;;;;;11.27;10.38;;;;;;;2.06;75.22;98552.06;10447909;28;20491;-64
2021/01/28 17:49:33;;;;;;;10.82;10.02;;;;;;;2.10;75.13;98561.47;10465159;28;20049;-65
2021/01/28 17:54:35;;;;;;;11.32;10.35;;;;;;;1.96;74.77;98561.78;10466277;28;20044;-64
2021/01/28 17:59:38;;;;;;;11.77;10.98;;;;;;;1.65;75.75;98580.50;10448000;28;20075;-63
2021/01/28 18:04:39;;;;;;;12.70;11.70;;;;;;;1.63;75.89;98586.59;10445096;28;20049;-64
2021/01/28 18:09:41;;;;;;;13.57;12.50;;;;;;;1.58;76.00;98583.25;10447621;28;20045;-63
2021/01/28 18:14:44;;;;;;;15.65;14.40;;;;;;;1.70;75.94;98596.81;10471289;28;20095;-65
2021/01/28 18:19:46;;;;;;;15.10;13.95;;;;;;;1.66;76.09;98602.09;10470824;28;20045;-63
2021/01/28 18:24:47;;;;;;;15.10;14.02;;;;;;;1.86;75.35;98607.75;10466457;28;20072;-65
2021/01/28 18:29:49;;;;;;;16.65;15.45;;;;;;;1.56;75.41;98610.91;10470301;28;20132;-64
2021/01/28 18:34:50;;;;;;;17.40;16.10;;;;;;;1.35;76.31;98620.75;10468101;28;20057;-64
2021/01/28 18:39:51;;;;;;;19.75;17.75;;;;;;;1.26;76.44;98624.38;10468659;28;20490;-65
2021/01/28 18:44:53;;;;;;;17.25;15.95;;;;;;;1.21;75.75;98620.16;10468378;28;20063;-63
2021/01/28 18:49:54;;;;;;;17.27;15.93;;;;;;;0.93;76.88;98628.38;10468145;28;20049;-63
2021/01/28 18:54:59;;;;;;;18.63;17.23;;;;;;;0.87;76.90;98637.94;10467828;28;20041;-65
2021/01/28 19:00:03;;;;;;;16.73;15.43;;;;;;;0.79;77.20;98642.38;10469142;28;20087;-63
2021/01/28 19:05:05;;;;;;;16.33;15.10;;;;;;;0.72;77.22;98652.81;10467767;28;20045;-64
2021/01/28 19:10:10;;;;;;;16.80;15.50;;;;;;;0.75;76.75;98657.94;10449214;28;20041;-64
2021/01/28 19:15:13;;;;;;;16.92;15.63;;;;;;;0.87;76.29;98659.47;10450183;28;20103;-64
2021/01/28 19:20:15;;;;;;;15.13;13.95;;;;;;;0.79;76.16;98676.84;10468285;28;20584;-65
2021/01/28 19:25:18;;;;;;;15.23;14.13;;;;;;;0.81;76.36;98676.84;10450281;28;20376;-64
2021/01/28 19:30:24;;;;;;;15.88;14.68;;;;;;;0.79;76.27;98683.75;10467181;28;20040;-65
2021/01/28 19:35:29;;;;;;;16.35;15.15;;;;;;;0.66;76.76;98680.47;10468114;28;20047;-63
2021/01/28 19:40:32;;;;;;;17.33;15.80;;;;;;;0.75;76.62;98688.09;10468683;28;20052;-64
2021/01/28 19:45:33;;;;;;;16.80;15.48;;;;;;;0.62;77.10;98689.16;10469440;28;20037;-64
2021/01/28 19:50:37;;;;;;;16.30;15.02;;;;;;;0.59;77.21;98696.97;10450296;28;20052;-65
2021/01/28 19:55:38;;;;;;;16.88;15.57;;;;;;;0.81;76.67;98710.47;10449627;28;20103;-66
2021/01/28 20:00:39;;;;;;;17.98;16.58;;;;;;;0.72;76.44;98714.88;10467575;28;20060;-64
2021/01/28 20:05:42;;;;;;;19.05;17.45;;;;;;;0.54;77.39;98727.19;10467138;28;20045;-66
2021/01/28 20:10:44;;;;;;;16.45;15.15;;;;;;;0.80;76.97;98739.78;10465395;28;20109;-64
2021/01/28 20:15:48;;;;;;;18.20;16.65;;;;;;;0.63;77.37;98750.34;10449533;28;20041;-63
2021/01/28 20:20:50;;;;;;;17.77;16.38;;;;;;;0.57;77.34;98758.16;10468246;28;20379;-64
2021/01/28 20:25:52;;;;;;;17.50;16.10;;;;;;;0.67;76.91;98776.16;10471279;28;20088;-66
2021/01/28 20:30:53;;;;;;;17.42;16.02;;;;;;;0.70;76.64;98783.00;10467595;28;20461;-62
2021/01/28 20:35:55;;;;;;;15.35;14.05;;;;;;;0.70;76.68;98793.34;10467610;28;20048;-65
2021/01/28 20:40:57;;;;;;;16.90;15.40;;;;;;;0.45;76.99;98801.41;10465993;28;20087;-64
2021/01/28 20:45:58;;;;;;;16.27;14.75;;;;;;;0.58;76.57;98784.03;10464876;28;20099;-64
2021/01/28 20:50:59;;;;;;;15.75;14.35;;;;;;;0.55;76.70;98775.44;10450442;28;20402;-64
2021/01/28 20:56:01;;;;;;;16.30;14.82;;;;;;;0.43;76.74;98772.13;10448977;28;20044;-66
2021/01/28 21:01:03;;;;;;;17.75;15.80;;;;;;;0.52;76.23;98788.41;10465706;28;20045;-67
2021/01/28 21:06:04;;;;;;;16.17;14.77;;;;;;;0.60;76.22;98792.63;10465089;28;20041;-64
2021/01/28 21:11:06;;;;;;;17.58;15.90;;;;;;;0.48;76.52;98792.75;10463933;28;20072;-65
2021/01/28 21:16:08;;;;;;;18.00;15.48;;;;;;;0.61;76.24;98806.41;10462907;28;20124;-63
2021/01/28 21:21:10;;;;;;;19.52;17.40;;;;;;;0.34;76.65;98829.09;10462733;28;20072;-65
2021/01/28 21:26:11;;;;;;;16.52;15.13;;;;;;;0.55;76.64;98812.50;10463203;28;20107;-65
2021/01/28 21:31:13;;;;;;;17.65;16.05;;;;;;;0.38;76.40;98799.75;10463931;28;20072;-64
2021/01/28 21:36:16;;;;;;;17.45;15.70;;;;;;;0.49;76.08;98808.25;10462674;28;20434;-66
2021/01/28 21:41:17;;;;;;;15.38;13.88;;;;;;;0.77;75.19;98814.84;10461911;28;20124;-65
2021/01/28 21:46:18;;;;;;;15.23;13.95;;;;;;;0.86;74.64;98813.00;10462087;28;20449;-64
2021/01/28 21:51:21;;;;;;;15.90;14.25;;;;;;;0.72;74.82;98809.72;10463647;28;20068;-65
2021/01/28 21:56:23;;;;;;;15.35;13.95;;;;;;;0.71;75.23;98811.47;10448889;28;20056;-66
2021/01/28 22:01:24;;;;;;;16.48;14.98;;;;;;;0.64;75.27;98822.75;10498562;22;20047;-67
2021/01/28 22:06:26;;;;;;;15.48;14.05;;;;;;;0.78;74.53;98820.00;10542711;28;20044;-66
2021/01/28 22:11:27;;;;;;;15.68;14.18;;;;;;;0.62;75.05;98839.13;10523704;28;20066;-66
2021/01/28 22:16:29;;;;;;;18.65;16.85;;;;;;;0.36;76.02;98847.19;10542013;28;20073;-67
2021/01/28 22:21:30;;;;;;;18.40;16.80;;;;;;;0.33;76.46;98855.81;10542343;28;20044;-66
2021/01/28 22:26:32;;;;;;;15.05;13.75;;;;;;;0.31;76.29;98844.66;10542651;28;20038;-67
2021/01/28 22:31:34;;;;;;;17.40;15.80;;;;;;;0.29;75.98;98846.38;10541819;28;20105;-67
2021/01/28 22:36:36;;;;;;;15.82;14.43;;;;;;;0.35;76.19;98848.03;10541504;28;20111;-67
2021/01/28 22:41:37;;;;;;;15.75;14.40;;;;;;;0.45;75.24;98847.94;10542176;28;20058;-67
2021/01/28 22:46:38;;;;;;;14.77;13.38;;;;;;;0.42;75.35;98839.34;10523670;28;20127;-67
2021/01/28 22:51:40;;;;;;;14.35;13.05;;;;;;;0.66;75.11;98852.00;10523210;28;20165;-66
2021/01/28 22:56:41;;;;;;;16.10;14.48;;;;;;;0.42;75.24;98866.06;10542069;28;20044;-67
2021/01/28 23:01:43;;;;;;;16.08;14.68;;;;;;;0.54;75.08;98847.00;10523380;28;20059;-67
2021/01/28 23:06:44;;;;;;;15.60;14.18;;;;;;;0.57;75.08;98854.69;10540860;28;20040;-67
2021/01/28 23:11:46;;;;;;;15.10;13.65;;;;;;;0.44;75.16;98848.81;10540862;28;20118;-65
2021/01/28 23:16:48;;;;;;;15.50;14.13;;;;;;;0.34;76.00;98854.09;10529417;28;20127;-67
2021/01/28 23:21:49;;;;;;;17.38;15.65;;;;;;;0.27;75.98;98850.72;10548145;28;20071;-67
2021/01/28 23:26:51;;;;;;;17.35;15.55;;;;;;;0.19;76.58;98845.59;10550125;28;20099;-68
2021/01/28 23:31:52;;;;;;;16.10;14.40;;;;;;;0.34;76.19;98847.19;10548445;28;20043;-67
2021/01/28 23:36:54;;;;;;;21.48;19.30;;;;;;;0.71;75.14;98845.09;10548079;28;20040;-68
2021/01/28 23:41:55;;;;;;;16.70;15.05;;;;;;;0.88;74.30;98847.44;10548155;28;20097;-67
2021/01/28 23:46:56;;;;;;;16.35;14.77;;;;;;;0.80;73.98;98851.00;10547949;28;20506;-66
2021/01/28 23:51:58;;;;;;;16.52;15.13;;;;;;;0.52;74.93;98848.72;10546970;28;20044;-67